Billings, MT (59101)

11:35 AM MDT on August 30, 2016 (GMT -0600)
Jupiter Sulphur | | Change Station

Elev 3114 ft 45.78 °N, 108.49 °W | Updated 6 minutes ago

Scattered Clouds
Scattered Clouds
76.3 °F
Feels Like 78 °F
N
4.0
Wind Variable Wind from ENE
Gusts 7.0 mph

Today
High -- | Low -- °F
--% Chance of Precip.
Yesterday
High -- | Low -- °F
Precip. -- in
Pressure 30.05 in
Visibility 10.0 miles
Clouds Few 9500 ft
Scattered Clouds 20000 ft
Heat Index 78 °F
Dew Point 51 °F
Humidity 41%
Rainfall 0.00 in
Snow Depth Not available.
6:33 AM 7:54 PM
Waning Crescent, 3% visible
METAR KBIL 301653Z 05005KT 10SM FEW095 SCT200 24/08 A3015 RMK AO2 SLP176 T02390083
Pressure 30.05 in
Visibility 10.0 miles
Clouds Few 9500 ft
Scattered Clouds 20000 ft
Heat Index 78 °F
Dew Point 51 °F
Humidity 41%
Rainfall 0.00 in
Snow Depth Not available.
6:33 AM 7:54 PM
Waning Crescent, 3% visible
METAR KBIL 301653Z 05005KT 10SM FEW095 SCT200 24/08 A3015 RMK AO2 SLP176 T02390083

10-Day Weather Forecast

Almanac

Astronomy

Aug. 30, 2016 Rise Set
Actual Time
Civil Twilight
Nautical Twilight
Astronomical Twilight
Moon
Length of Visible Light
Length of Day
Tomorrow will be .
, % of the Moon is Illuminated

Today's Extremes

State Highs State Lows

Community

WunderPhotos

Upload Photos

1,935,853 photos uploaded!

WunderBlog® & News

Nearby

Air Quality

  Air Quality AQ Index Pollutant
Not available.

Snow Depth

Station Depth Elevation

Earthquake Activity

City Distance Mag. Time & Date
Minimum magnitude displayed is 2.5.

Coastal Water Temperatures

Place Temperature

Stations

Nearby Weather Stations

Station Location Temp. Windchill Dew Point Humidity Wind Precip. Elev Updated Type
                   

Watches & Warnings

There are currently no watches in effect.